Terminal Aerodrome Forecast
Issued by NWS

Home | Current Version | Previous Version | Graphics & Text | Print | Product List | Glossary On
Versions: 1 2 3 4 5 6 7 8 9 10 11 12 13 14 15 16 17 18 19 20 21 22 23 24 25 26 27 28 29 30 31 32 33 34 35 36 37 38 39 40 41 42 43
000
FTUS45 KGGW 010500
TAFGDV
TAF
KGDV 010520Z 0106/0206 03011KT 5SM -SHSN BKN029
     FM010900 00000KT P6SM VCSH BKN030 BKN040
     FM011200 VRB05KT P6SM FEW030 FEW140
     FM020000 VRB05KT P6SM SCT210
      AMD LTD TO CLD VIS AND WIND=

USA.gov is the U.S. government's official web portal to all federal, state and local government web resources and services.